Weather forecast for Mieroszów

Poland, 561 m
N50.672, E16.210


Sounding

Red line — air temperature ˚C.
Blue line — thermal bubble temperature ˚C.
Green line — dew point temperature ˚C.
Wind speed is in meters per second.

Table forecast

GFS 0.25˚ model

temp. wind gust humid. clouds prec. press. hpbl
Tue18 00:00 14 202.0 ssw 2 3 80 100 0.0 1021 53
03:00 14 210.0 ssw 3 5 87 100 0.0 1020 112
06:00 13 215.0 sw 3 3 84 100 0.0 1019 68
09:00 15 209.0 ssw 3 7 81 100 0.0 1019 191
12:00 20 195.0 ssw 4 8 60 99 0.0 1019 534
15:00 23 197.0 ssw 6 9 54 59 0.0 1018 873
18:00 22 199.0 ssw 5 9 58 0 0.0 1017 934
21:00 18 205.0 ssw 4 13 68 0 0.0 1017 381
 
Wed19 00:00 17 211.0 ssw 5 14 65 0 0.0 1018 372
03:00 16 213.0 ssw 4 11 67 0 0.0 1019 256
06:00 15 214.0 sw 4 8 70 0 0.0 1019 155
09:00 15 219.0 sw 3 5 73 0 0.0 1020 115
12:00 21 219.0 sw 2 3 61 55 0.0 1020 337
15:00 24 216.0 sw 2 2 53 77 0.0 1020 871
18:00 24 183.0 s 1 2 56 67 0.0 1019 965
21:00 18 201.0 ssw 2 3 78 34 0.0 1020 40
 
Thu20 00:00 16 212.0 ssw 2 3 82 0 0.0 1021 54
03:00 15 216.0 sw 3 3 85 0 0.0 1020 80
06:00 15 219.0 sw 3 3 88 0 0.0 1020 67
09:00 16 223.0 sw 2 3 85 0 0.0 1020 88
12:00 23 237.0 wsw 1 2 61 0 0.0 1020 481
15:00 25 215.0 sw 2 2 53 0 0.0 1019 1231
18:00 24 210.0 ssw 2 3 56 7 0.0 1017 1140
21:00 18 210.0 ssw 2 3 71 9 0.0 1017 43
 
Fri21 00:00 17 206.0 ssw 3 6 75 9 0.0 1017 127
03:00 16 207.0 ssw 4 9 78 5 0.0 1016 203
06:00 16 204.0 ssw 4 11 72 0 0.0 1015 254
09:00 16 203.0 ssw 5 14 69 18 0.0 1013 406
12:00 21 204.0 ssw 7 12 57 33 0.0 1012 595
15:00 24 207.0 ssw 7 11 51 43 0.0 1010 1109
18:00 23 199.0 ssw 5 11 58 97 0.0 1007 964
21:00 20 207.0 ssw 5 12 65 99 0.0 1008 469
 
Sat22 00:00 15 294.0 wnw 3 7 94 100 3.8 1010 501
03:00 11 275.0 w 4 10 91 100 14.2 1014 972
06:00 8 295.0 wnw 6 12 86 100 0.5 1018 994
09:00 7 288.0 wnw 6 12 81 100 0.5 1021 822
12:00 11 280.0 w 5 7 63 4 0.0 1022 1295
15:00 12 286.0 wnw 6 8 61 28 0.3 1022 1310
18:00 12 291.0 wnw 4 7 59 2 0.0 1022 1293
21:00 8 254.0 wsw 3 5 76 1 0.0 1024 119
 

0.027 s